Time;durP1;ratioP1;P1;durP2;ratioP2;P2;SDS_P1;SDS_P2;PMS_P1;PMS_P2;Temp;Humidity;BMP_temperature;BMP_pressure;BME280_temperature;BME280_humidity;BME280_pressure;Samples;Min_cycle;Max_cycle;Signal;HPM_P1;HPM_P2
2021/09/13 00:01:48;;;;;;;0.40;0.30;;;;;;;18.49;52.36;100604.09;5015269;28;20014;-76
2021/09/13 00:04:13;;;;;;;0.38;0.38;;;;;;;18.47;52.79;100607.19;4996043;28;20033;-76
2021/09/13 00:06:39;;;;;;;0.35;0.30;;;;;;;18.45;52.93;100592.81;5013829;28;20033;-76
2021/09/13 00:09:04;;;;;;;0.30;0.20;;;;;;;18.46;52.94;100600.00;4993914;28;20534;-76
2021/09/13 00:11:30;;;;;;;0.20;0.20;;;;;;;18.43;53.24;100589.53;5008184;28;20030;-75
2021/09/13 00:13:56;;;;;;;0.30;0.30;;;;;;;18.48;53.27;100596.91;5004948;28;20404;-76
2021/09/13 00:16:21;;;;;;;0.30;0.20;;;;;;;18.44;53.27;100601.44;5011157;28;20033;-76
2021/09/13 00:18:59;;;;;;;0.45;0.35;;;;;;;18.40;53.47;100594.88;4988342;28;20038;-76
2021/09/13 00:21:35;;;;;;;0.28;0.28;;;;;;;18.35;53.26;100592.25;4998120;28;20022;-77
2021/09/13 00:24:17;;;;;;;;;;;;;;;;;;;;;
2021/09/13 00:26:43;;;;;;;0.60;0.60;;;;;;;18.22;53.41;100578.16;5015478;28;20028;-77
2021/09/13 00:29:09;;;;;;;0.65;0.63;;;;;;;18.24;53.57;100583.41;4995416;28;20460;-76
2021/09/13 00:31:37;;;;;;;0.70;0.60;;;;;;;18.19;53.68;100576.00;4996255;28;20095;-77
2021/09/13 00:34:14;;;;;;;0.70;0.70;;;;;;;18.25;54.21;100594.16;4997329;28;20049;-77
2021/09/13 00:36:39;;;;;;;0.93;0.70;;;;;;;18.11;53.72;100582.31;5004312;28;20496;-76
2021/09/13 00:39:05;;;;;;;0.65;0.65;;;;;;;18.10;53.93;100588.97;4993585;28;20053;-76
2021/09/13 00:41:31;;;;;;;0.75;0.75;;;;;;;18.08;54.64;100599.53;4982074;28;20045;-75
2021/09/13 00:43:58;;;;;;;0.70;0.70;;;;;;;18.01;54.49;100588.91;4996692;28;20022;-76
2021/09/13 00:46:23;;;;;;;0.77;0.77;;;;;;;18.03;54.22;100596.88;5008054;28;20452;-74
2021/09/13 00:48:52;;;;;;;0.40;0.40;;;;;;;17.91;54.61;100583.59;5012386;28;20117;-74
2021/09/13 00:51:18;;;;;;;0.63;0.63;;;;;;;17.89;54.82;100591.38;4988448;28;20174;-74
2021/09/13 00:53:43;;;;;;;0.77;0.77;;;;;;;17.87;54.72;100586.16;4992459;28;20069;-74
2021/09/13 00:56:09;;;;;;;0.70;0.70;;;;;;;17.89;54.44;100591.38;4993885;28;20069;-73
2021/09/13 00:58:36;;;;;;;0.50;0.50;;;;;;;17.87;54.57;100585.31;5008364;28;20032;-74
2021/09/13 01:01:03;;;;;;;0.30;0.30;;;;;;;17.86;54.94;100589.19;4995283;28;20154;-74
2021/09/13 01:03:29;;;;;;;0.50;0.50;;;;;;;17.86;55.41;100587.28;4996389;28;20230;-74
2021/09/13 01:05:55;;;;;;;0.52;0.52;;;;;;;17.83;54.86;100571.31;4990693;28;20026;-74
2021/09/13 01:08:32;;;;;;;0.50;0.50;;;;;;;17.87;55.00;100575.09;4995378;28;20054;-74
2021/09/13 01:10:59;;;;;;;0.55;0.55;;;;;;;17.87;54.88;100577.84;5011338;28;20108;-73
2021/09/13 01:13:26;;;;;;;0.70;0.70;;;;;;;17.93;55.58;100579.41;4993880;28;20521;-73
2021/09/13 01:15:56;;;;;;;0.55;0.55;;;;;;;17.99;55.16;100574.56;5005545;28;20094;-73
2021/09/13 01:18:24;;;;;;;0.95;0.95;;;;;;;17.90;55.27;100555.13;4982031;28;20041;-74
2021/09/13 01:20:56;;;;;;;0.90;0.90;;;;;;;17.96;55.33;100575.19;5009569;28;20503;-75
2021/09/13 01:23:33;;;;;;;1.23;0.73;;;;;;;17.84;55.47;100556.31;5005996;28;20049;-76
2021/09/13 01:25:59;;;;;;;0.50;0.50;;;;;;;17.82;55.43;100558.59;5007136;28;20030;-73
2021/09/13 01:28:35;;;;;;;0.57;0.57;;;;;;;17.85;55.31;100562.69;5004507;28;20026;-74
2021/09/13 01:31:03;;;;;;;0.75;0.75;;;;;;;17.79;55.98;100560.03;5011690;28;20057;-74
2021/09/13 01:33:28;;;;;;;0.70;0.70;;;;;;;17.76;55.85;100562.63;5010119;28;20022;-74
2021/09/13 01:35:54;;;;;;;0.73;0.73;;;;;;;17.76;55.70;100546.03;5009172;28;20092;-75
2021/09/13 01:38:34;;;;;;;0.57;0.57;;;;;;;17.83;55.65;100559.41;5012811;28;20038;-74
2021/09/13 01:41:00;;;;;;;0.68;0.68;;;;;;;17.82;55.48;100564.13;5010925;28;20114;-75
2021/09/13 01:43:26;;;;;;;1.27;1.10;;;;;;;17.70;56.21;100548.06;4995165;28;20054;-75
2021/09/13 01:45:54;;;;;;;0.50;0.50;;;;;;;17.73;56.11;100560.47;5000031;28;20042;-76
2021/09/13 01:48:31;;;;;;;0.63;0.63;;;;;;;17.68;55.93;100555.84;4999034;28;20038;-76
2021/09/13 01:51:20;;;;;;;;;;;;;;;;;;;;;
2021/09/13 01:53:49;;;;;;;0.57;0.57;;;;;;;17.52;55.88;100544.34;5008891;28;20026;-75
2021/09/13 01:56:14;;;;;;;0.40;0.40;;;;;;;17.45;56.27;100549.47;5005249;28;20022;-75
2021/09/13 01:58:47;;;;;;;0.40;0.40;;;;;;;17.44;56.33;100537.56;5013082;28;20068;-75
2021/09/13 02:01:22;;;;;;;0.40;0.40;;;;;;;17.38;56.33;100532.47;4992614;28;20034;-78
2021/09/13 02:04:02;;;;;;;;;;;;;;;;;;;;;
2021/09/13 02:06:29;;;;;;;1.00;1.00;;;;;;;17.38;56.69;100547.09;5007394;28;20041;-76
2021/09/13 02:09:07;;;;;;;;;;;;;;;;;;;;;
2021/09/13 02:11:45;;;;;;;1.30;1.30;;;;;;;17.20;57.41;100534.22;5015641;28;20028;-76
2021/09/13 02:14:20;;;;;;;;;;;;;;;;;;;;;
2021/09/13 02:16:46;;;;;;;1.05;1.05;;;;;;;17.01;57.54;100515.00;4989248;28;20019;-77
2021/09/13 02:19:11;;;;;;;0.88;0.88;;;;;;;17.08;57.10;100541.09;4991629;28;20105;-76
2021/09/13 02:21:37;;;;;;;0.50;0.50;;;;;;;17.01;57.67;100545.38;4978053;28;20441;-76
2021/09/13 02:24:03;;;;;;;0.75;0.75;;;;;;;16.93;57.78;100536.69;5029462;28;20049;-77
2021/09/13 02:26:38;;;;;;;0.90;0.90;;;;;;;16.98;57.57;100541.31;5000459;28;20026;-77
2021/09/13 02:29:08;;;;;;;1.25;1.15;;;;;;;16.96;58.39;100542.72;4984863;28;20033;-78
2021/09/13 02:31:34;;;;;;;0.75;0.75;;;;;;;16.88;58.08;100533.19;5010160;28;20026;-77
2021/09/13 02:34:04;;;;;;;0.60;0.60;;;;;;;16.90;58.37;100534.53;4988788;28;20084;-77
2021/09/13 02:36:30;;;;;;;1.05;1.00;;;;;;;16.90;58.35;100545.56;4964645;28;20054;-78
2021/09/13 02:38:58;;;;;;;0.80;0.80;;;;;;;16.90;58.19;100540.06;4970445;28;20072;-76
2021/09/13 02:41:23;;;;;;;0.90;0.90;;;;;;;16.93;58.12;100541.38;4998965;28;20094;-76
2021/09/13 02:43:49;;;;;;;0.98;0.98;;;;;;;16.89;58.15;100535.69;4969629;28;20030;-76
2021/09/13 02:46:28;;;;;;;;;;;;;;;;;;;;;
2021/09/13 02:48:54;;;;;;;1.25;1.25;;;;;;;17.02;59.01;100542.31;4992809;28;20018;-75
2021/09/13 02:51:22;;;;;;;1.30;1.30;;;;;;;17.08;58.46;100540.25;4999110;28;20028;-77
2021/09/13 02:53:50;;;;;;;1.48;1.38;;;;;;;17.03;58.59;100543.16;5015692;28;20020;-76
2021/09/13 02:56:18;;;;;;;1.50;1.50;;;;;;;16.99;58.97;100536.59;5003602;28;20029;-77
2021/09/13 02:58:46;;;;;;;1.23;1.23;;;;;;;16.99;59.23;100536.59;5019098;28;20404;-77
2021/09/13 03:01:24;;;;;;;;;;;;;;;;;;;;;
2021/09/13 03:03:57;;;;;;;2.05;1.95;;;;;;;16.95;59.36;100532.78;5016178;28;20034;-75
2021/09/13 03:06:23;;;;;;;2.33;2.22;;;;;;;17.05;59.60;100543.63;5014616;28;20030;-73
2021/09/13 03:08:53;;;;;;;1.90;1.80;;;;;;;16.99;59.71;100533.81;5011445;28;20040;-74
2021/09/13 03:11:19;;;;;;;1.98;1.88;;;;;;;16.97;59.40;100528.63;4993607;28;20487;-73
2021/09/13 03:13:44;;;;;;;1.83;1.73;;;;;;;17.00;59.65;100532.72;5001767;28;20029;-74
2021/09/13 03:16:10;;;;;;;1.38;1.35;;;;;;;16.98;59.82;100540.47;4982605;28;20084;-75
2021/09/13 03:18:40;;;;;;;2.53;2.42;;;;;;;16.95;59.89;100535.56;5019844;28;20034;-75
2021/09/13 03:21:10;;;;;;;2.67;2.58;;;;;;;16.85;60.41;100528.25;5005283;28;20033;-76
2021/09/13 03:23:36;;;;;;;2.72;2.63;;;;;;;16.83;60.23;100531.31;4945892;28;20031;-74
2021/09/13 03:26:01;;;;;;;2.35;2.25;;;;;;;16.73;60.44;100512.19;5009564;28;20045;-74
2021/09/13 03:28:27;;;;;;;2.78;2.58;;;;;;;16.78;60.61;100519.53;4997269;28;20464;-74
2021/09/13 03:30:52;;;;;;;3.28;3.03;;;;;;;16.75;60.90;100519.03;4991320;28;20085;-75
2021/09/13 03:33:18;;;;;;;2.05;1.95;;;;;;;16.75;61.01;100523.75;5012917;28;20152;-76
2021/09/13 03:35:43;;;;;;;2.30;2.20;;;;;;;16.67;61.10;100513.41;4977345;28;20029;-75
2021/09/13 03:38:11;;;;;;;2.55;2.45;;;;;;;16.63;61.07;100506.84;4980128;28;20115;-75
2021/09/13 03:40:37;;;;;;;2.35;2.25;;;;;;;16.56;61.39;100512.78;4975189;28;20027;-74
2021/09/13 03:43:02;;;;;;;2.33;2.13;;;;;;;16.52;61.51;100515.34;4994736;28;20208;-74
2021/09/13 03:45:28;;;;;;;2.67;2.47;;;;;;;16.53;61.58;100533.53;4990145;28;20045;-75
2021/09/13 03:47:53;;;;;;;2.70;2.50;;;;;;;16.49;61.59;100538.03;5006803;28;20030;-74
2021/09/13 03:50:19;;;;;;;2.05;1.95;;;;;;;16.46;61.77;100533.09;5014400;28;20114;-75
2021/09/13 03:52:44;;;;;;;2.40;2.20;;;;;;;16.45;62.08;100536.97;4981855;28;20026;-77
2021/09/13 03:55:12;;;;;;;2.25;2.15;;;;;;;16.43;61.91;100524.59;4997605;28;20084;-76
2021/09/13 03:57:40;;;;;;;2.33;2.22;;;;;;;16.45;62.66;100523.19;4975719;28;20109;-75
2021/09/13 04:00:08;;;;;;;3.20;3.00;;;;;;;16.44;62.49;100527.09;4994775;28;20026;-74
2021/09/13 04:02:36;;;;;;;3.50;3.33;;;;;;;16.46;62.75;100530.34;5014726;28;20025;-74
2021/09/13 04:05:11;;;;;;;3.45;3.17;;;;;;;16.55;63.15;100539.56;4991195;28;20036;-74
2021/09/13 04:10:42;;;;;;;4.13;3.92;;;;;;;16.60;62.95;100541.41;5009287;28;20410;-74
2021/09/13 04:13:07;;;;;;;3.92;3.63;;;;;;;16.57;63.03;100531.81;4997965;28;20484;-73
2021/09/13 04:15:34;;;;;;;4.43;4.13;;;;;;;16.55;63.42;100531.28;5014249;28;20045;-75
2021/09/13 04:18:00;;;;;;;2.75;2.65;;;;;;;16.49;63.25;100532.50;4992756;28;20034;-74
2021/09/13 04:20:25;;;;;;;3.45;3.28;;;;;;;16.44;63.56;100527.09;5003750;28;20397;-74
2021/09/13 04:22:51;;;;;;;3.83;3.63;;;;;;;16.38;63.34;100528.28;4964886;28;20120;-74
2021/09/13 04:25:16;;;;;;;3.70;3.10;;;;;;;16.37;63.88;100526.66;4991872;28;20026;-74
2021/09/13 04:27:42;;;;;;;3.78;3.50;;;;;;;16.34;64.12;100527.25;5013203;28;20064;-73
2021/09/13 04:30:09;;;;;;;3.47;3.38;;;;;;;16.35;64.05;100528.88;4977389;28;20042;-74
2021/09/13 04:32:35;;;;;;;3.47;3.17;;;;;;;16.38;64.11;100517.25;5006948;28;20113;-73
2021/09/13 04:35:00;;;;;;;2.97;2.88;;;;;;;16.32;63.92;100519.25;4997086;28;20108;-73
2021/09/13 04:37:25;;;;;;;3.20;3.03;;;;;;;16.37;63.96;100521.13;4994227;28;20045;-73
2021/09/13 04:39:51;;;;;;;3.03;2.83;;;;;;;16.40;64.31;100528.81;5008218;28;20025;-75
2021/09/13 04:42:16;;;;;;;3.38;3.17;;;;;;;16.42;64.34;100532.06;4996069;28;20029;-74
2021/09/13 04:44:42;;;;;;;2.83;2.72;;;;;;;16.43;64.15;100525.44;5020616;28;20033;-76
2021/09/13 04:47:08;;;;;;;3.25;3.05;;;;;;;16.46;64.16;100535.06;4994820;28;20113;-75
2021/09/13 04:49:33;;;;;;;3.40;3.20;;;;;;;16.49;64.28;100534.44;5012212;28;20075;-75
2021/09/13 04:51:59;;;;;;;2.90;2.80;;;;;;;16.50;64.12;100536.06;4982528;28;20084;-74
2021/09/13 04:54:24;;;;;;;4.20;3.08;;;;;;;16.49;63.94;100535.25;5013733;28;20034;-75
2021/09/13 04:56:50;;;;;;;2.03;1.92;;;;;;;16.48;64.09;100530.84;4995117;28;20065;-75
2021/09/13 04:59:15;;;;;;;1.92;1.83;;;;;;;16.56;64.44;100541.22;4999951;28;20025;-76
2021/09/13 05:01:41;;;;;;;2.38;2.28;;;;;;;16.66;63.96;100542.13;4973924;28;20034;-76
2021/09/13 05:04:09;;;;;;;3.15;2.95;;;;;;;16.70;63.90;100551.44;5010972;28;20041;-75
2021/09/13 05:06:36;;;;;;;3.40;3.20;;;;;;;16.67;63.96;100546.53;4997243;28;20026;-74
2021/09/13 05:09:01;;;;;;;2.28;2.00;;;;;;;16.64;63.72;100539.69;5010682;28;20065;-75
2021/09/13 05:11:27;;;;;;;3.08;2.95;;;;;;;16.63;64.22;100531.69;5007611;28;20088;-74
2021/09/13 05:13:53;;;;;;;2.53;2.42;;;;;;;16.63;64.01;100540.00;4995847;23;20047;-74
2021/09/13 05:16:19;;;;;;;2.63;2.53;;;;;;;16.61;64.10;100539.47;4969550;28;20015;-73
2021/09/13 05:18:45;;;;;;;2.30;2.20;;;;;;;16.61;64.16;100532.00;4969000;28;20118;-73
2021/09/13 05:21:13;;;;;;;2.00;1.90;;;;;;;16.63;63.99;100534.47;4951849;28;20039;-72
2021/09/13 05:23:39;;;;;;;1.50;1.50;;;;;;;16.65;64.17;100537.75;4971870;28;20026;-71
2021/09/13 05:26:05;;;;;;;1.73;1.63;;;;;;;16.71;64.03;100531.81;4970438;28;20030;-72
2021/09/13 05:28:31;;;;;;;1.63;1.52;;;;;;;16.74;64.06;100535.91;4970864;28;20030;-73
2021/09/13 05:30:56;;;;;;;1.83;1.73;;;;;;;16.79;64.23;100546.03;4971340;28;20492;-72
2021/09/13 05:33:22;;;;;;;2.20;2.10;;;;;;;16.86;64.02;100539.00;4970832;28;20027;-73
2021/09/13 05:35:47;;;;;;;2.72;2.53;;;;;;;16.93;64.17;100536.69;4969385;28;20050;-72
2021/09/13 05:38:13;;;;;;;3.42;3.13;;;;;;;17.00;64.04;100538.22;4968948;28;20035;-72
2021/09/13 05:40:40;;;;;;;2.70;2.58;;;;;;;17.06;63.93;100537.00;4968813;28;20109;-74
2021/09/13 05:43:07;;;;;;;2.80;2.70;;;;;;;17.08;63.71;100534.75;4975968;28;20031;-72
2021/09/13 05:45:34;;;;;;;2.90;2.75;;;;;;;17.12;63.53;100541.28;4969549;28;20033;-72
2021/09/13 05:48:00;;;;;;;4.13;3.88;;;;;;;17.08;63.34;100545.78;4951800;28;20114;-73
2021/09/13 05:50:25;;;;;;;4.20;4.00;;;;;;;17.04;64.00;100537.31;4983893;28;20441;-71
2021/09/13 05:52:51;;;;;;;4.35;4.05;;;;;;;17.00;63.84;100530.75;4970235;28;20126;-72
2021/09/13 05:55:17;;;;;;;4.03;3.80;;;;;;;16.98;63.64;100534.94;4971519;28;20026;-72
2021/09/13 05:57:42;;;;;;;4.85;4.50;;;;;;;16.95;63.64;100536.38;4965533;28;20070;-72
2021/09/13 06:00:11;;;;;;;4.18;3.97;;;;;;;16.93;63.74;100541.38;4946165;28;20427;-72
2021/09/13 06:02:40;;;;;;;4.07;3.92;;;;;;;16.87;64.02;100532.38;4971068;28;20097;-72
2021/09/13 06:05:09;;;;;;;3.90;3.80;;;;;;;16.83;63.98;100528.56;4977330;28;20067;-75
2021/09/13 06:07:39;;;;;;;4.95;4.65;;;;;;;16.80;63.75;100526.41;4961861;28;20054;-75
2021/09/13 06:10:14;;;;;;;;;;;;;;;;;;;;;
2021/09/13 06:12:40;;;;;;;5.45;5.05;;;;;;;16.68;63.74;100520.59;4969838;28;20053;-72
2021/09/13 06:15:07;;;;;;;4.75;4.50;;;;;;;16.76;64.08;100533.66;4978487;28;20568;-74
2021/09/13 06:17:47;;;;;;;;;;;;;;;;;;;;;
2021/09/13 06:20:33;;;;;;;;;;;;;;;;;;;;;
2021/09/13 06:22:59;;;;;;;5.25;4.78;;;;;;;16.56;63.81;100524.66;4985742;28;20037;-74
2021/09/13 06:25:44;;;;;;;;;;;;;;;;;;;;;
2021/09/13 06:28:10;;;;;;;4.95;4.70;;;;;;;16.64;64.45;100530.59;4987427;28;20058;-75
2021/09/13 06:30:39;;;;;;;4.65;4.38;;;;;;;16.74;64.39;100531.22;4990128;28;20101;-74
2021/09/13 06:33:07;;;;;;;5.90;5.50;;;;;;;16.80;64.60;100534.69;4976982;28;20089;-74
2021/09/13 06:35:59;;;;;;;4.28;4.07;;;;;;;16.94;64.15;100529.22;4976135;28;20329;-75
2021/09/13 06:38:25;;;;;;;6.10;5.60;;;;;;;16.90;64.36;100519.91;4979993;28;20046;-75
2021/09/13 06:40:59;;;;;;;5.82;5.53;;;;;;;16.96;64.16;100526.16;4993687;28;20022;-74
2021/09/13 06:43:43;;;;;;;;;;;;;;;;;;;;;
2021/09/13 06:49:11;;;;;;;4.05;3.75;;;;;;;17.10;64.45;100518.69;4957483;28;20043;-74
2021/09/13 06:51:36;;;;;;;5.13;4.72;;;;;;;17.27;64.26;100531.84;4998234;28;20073;-75
2021/09/13 06:54:04;;;;;;;4.40;4.10;;;;;;;17.37;63.79;100508.72;4987872;28;20018;-75
2021/09/13 06:56:37;;;;;;;4.75;4.50;;;;;;;17.54;63.73;100519.94;4981711;28;20037;-75
2021/09/13 06:59:13;;;;;;;6.53;6.03;;;;;;;17.67;63.38;100512.75;4987658;28;20027;-73
2021/09/13 07:01:39;;;;;;;4.47;4.22;;;;;;;17.89;63.11;100531.31;4991086;28;20033;-72
2021/09/13 07:04:05;;;;;;;3.58;3.38;;;;;;;18.06;63.27;100527.06;4974216;28;20026;-73
2021/09/13 07:06:31;;;;;;;4.70;4.38;;;;;;;18.22;62.59;100531.09;4996371;28;20476;-73
2021/09/13 07:08:57;;;;;;;4.38;4.18;;;;;;;18.35;62.75;100529.41;4989862;28;20037;-72
2021/09/13 07:11:23;;;;;;;5.53;5.07;;;;;;;18.46;62.40;100533.53;4974262;28;20037;-74
2021/09/13 07:13:49;;;;;;;4.28;4.07;;;;;;;18.57;61.96;100534.06;4989317;28;20078;-71
2021/09/13 07:16:15;;;;;;;3.30;3.10;;;;;;;18.69;62.19;100541.81;4980405;28;20042;-71
2021/09/13 07:18:43;;;;;;;2.60;2.50;;;;;;;18.75;62.10;100542.47;4987680;28;20032;-71
2021/09/13 07:21:19;;;;;;;5.03;4.30;;;;;;;18.83;61.56;100527.88;4992507;28;20400;-72
2021/09/13 07:23:47;;;;;;;6.25;5.85;;;;;;;18.95;61.74;100536.44;4956393;28;20038;-71
2021/09/13 07:26:25;;;;;;;;;;;;;;;;;;;;;
2021/09/13 07:28:51;;;;;;;4.40;4.10;;;;;;;19.08;61.30;100533.84;4988382;28;20019;-72
2021/09/13 07:31:16;;;;;;;4.07;3.95;;;;;;;19.18;61.00;100539.09;4970889;28;20050;-70
2021/09/13 07:33:42;;;;;;;4.90;4.50;;;;;;;19.27;61.15;100534.41;4989702;28;20049;-70
2021/09/13 07:36:10;;;;;;;4.15;3.95;;;;;;;19.35;60.91;100536.38;4958304;28;20054;-70
2021/09/13 07:38:35;;;;;;;4.10;3.90;;;;;;;19.53;60.74;100547.50;4990790;28;20034;-69
2021/09/13 07:41:01;;;;;;;5.20;5.00;;;;;;;19.62;60.49;100539.19;4982881;28;20043;-70
2021/09/13 07:43:26;;;;;;;6.03;5.72;;;;;;;19.66;60.40;100546.53;4967226;28;20027;-71
2021/09/13 07:46:00;;;;;;;5.28;5.03;;;;;;;19.69;59.99;100540.34;4972337;28;20568;-69
2021/09/13 07:48:26;;;;;;;6.88;6.47;;;;;;;19.57;59.86;100525.50;4969847;28;20034;-70
2021/09/13 07:50:51;;;;;;;7.25;6.72;;;;;;;19.64;60.03;100523.88;4957285;28;20038;-69
2021/09/13 07:53:17;;;;;;;8.98;8.30;;;;;;;19.69;59.83;100529.25;4986021;28;20022;-70
2021/09/13 07:55:42;;;;;;;7.38;6.88;;;;;;;19.70;59.89;100522.56;4982422;28;20027;-69
2021/09/13 07:58:08;;;;;;;9.23;8.52;;;;;;;19.83;59.83;100531.06;4987021;28;20035;-69
2021/09/13 08:00:44;;;;;;;7.57;7.05;;;;;;;19.96;59.67;100532.91;4987823;28;20077;-69
2021/09/13 08:03:09;;;;;;;8.10;7.25;;;;;;;20.02;59.57;100531.56;4985269;28;20029;-69
2021/09/13 08:05:35;;;;;;;5.32;5.03;;;;;;;20.10;59.75;100527.16;4988070;28;20022;-70
2021/09/13 08:08:03;;;;;;;7.43;6.78;;;;;;;20.18;59.47;100544.94;4965182;28;20427;-70
2021/09/13 08:10:39;;;;;;;;;;;;;;;;;;;;;
2021/09/13 08:13:04;;;;;;;6.50;6.10;;;;;;;20.19;59.11;100539.09;4973105;28;20031;-70
2021/09/13 08:15:35;;;;;;;5.40;5.13;;;;;;;20.11;59.49;100544.66;4976325;28;20049;-73
2021/09/13 08:18:01;;;;;;;3.80;3.50;;;;;;;20.04;59.41;100545.94;4970359;28;20062;-73
2021/09/13 08:20:26;;;;;;;6.10;5.80;;;;;;;19.95;59.29;100541.53;4966773;28;20172;-71
2021/09/13 08:22:56;;;;;;;4.45;4.15;;;;;;;19.92;59.34;100554.09;4986629;28;20037;-73
2021/09/13 08:25:28;;;;;;;3.80;3.60;;;;;;;19.83;59.87;100550.50;4991339;28;20037;-74
2021/09/13 08:30:51;;;;;;;3.80;3.60;;;;;;;19.71;59.82;100540.00;4896815;29;20123;-73
2021/09/13 08:33:22;;;;;;;2.63;2.53;;;;;;;19.73;59.68;100546.06;4957991;28;20042;-74
2021/09/13 08:53:22;;;;;;;;;;;;;;;;;;;;;
2021/09/13 09:02:47;;;;;;;5.25;4.95;;;;;;;19.58;60.59;100544.59;4816976;29;20036;-78
2021/09/13 09:30:37;;;;;;;5.13;3.45;;;;;;;20.77;59.66;100576.91;4858112;29;20037;-76
2021/09/13 09:40:12;;;;;;;;;;;;;;;;;;;;;
2021/09/13 09:43:36;;;;;;;;;;;;;;;;;;;;;
2021/09/13 09:46:55;;;;;;;5.45;4.25;;;;;;;21.21;58.30;100560.84;4826047;29;20041;-77
2021/09/13 09:50:34;;;;;;;;;;;;;;;;;;;;;
2021/09/13 09:53:21;;;;;;;2.08;1.95;;;;;;;21.48;57.97;100555.94;4877622;29;20032;-76
2021/09/13 09:56:31;;;;;;;;;;;;;;;;;;;;;
2021/09/13 10:06:33;;;;;;;1.90;1.70;;;;;;;21.96;57.16;100554.66;4921500;28;20039;-78
2021/09/13 10:27:10;;;;;;;2.50;2.40;;;;;;;21.69;56.42;100540.13;4861855;29;20125;-75
2021/09/13 10:29:40;;;;;;;1.23;1.15;;;;;;;21.64;56.57;100526.44;4855157;29;20045;-75
2021/09/13 10:32:25;;;;;;;;;;;;;;;;;;;;;
2021/09/13 10:35:26;;;;;;;;;;;;;;;;;;;;;
2021/09/13 10:38:02;;;;;;;;;;;;;;;;;;;;;
2021/09/13 10:41:11;;;;;;;;;;;;;;;;;;;;;
2021/09/13 10:44:18;;;;;;;;;;;;;;;;;;;;;
2021/09/13 10:54:35;;;;;;;4.63;4.32;;;;;;;22.99;54.04;100506.53;4955440;28;20070;-75
2021/09/13 10:57:39;;;;;;;;;;;;;;;;;;;;;
2021/09/13 11:00:09;;;;;;;2.58;2.47;;;;;;;22.83;53.34;100492.47;4945441;28;20431;-76
2021/09/13 11:02:39;;;;;;;3.30;3.03;;;;;;;22.72;53.20;100502.47;4946748;28;20055;-75
2021/09/13 11:05:20;;;;;;;6.03;5.43;;;;;;;22.71;53.83;100505.63;4942609;28;20358;-75
2021/09/13 11:08:35;;;;;;;4.78;3.10;;;;;;;22.75;53.64;100501.78;4941182;29;20051;-76
2021/09/13 11:11:01;;;;;;;3.03;2.72;;;;;;;22.63;53.43;100499.78;4960307;28;20030;-75
2021/09/13 11:13:38;;;;;;;;;;;;;;;;;;;;;
2021/09/13 11:16:17;;;;;;;1.80;1.70;;;;;;;22.43;53.35;100490.34;4943138;28;20032;-76
2021/09/13 11:18:44;;;;;;;1.75;1.65;;;;;;;22.35;53.57;100487.66;4963232;28;20469;-76
2021/09/13 11:21:45;;;;;;;1.38;1.30;;;;;;;22.44;53.58;100478.06;4954597;28;20046;-75
2021/09/13 11:24:19;;;;;;;1.77;1.60;;;;;;;22.55;53.66;100485.97;4996283;28;20441;-75
2021/09/13 11:27:00;;;;;;;;;;;;;;;;;;;;;
2021/09/13 11:29:45;;;;;;;1.05;0.98;;;;;;;22.81;53.44;100489.22;4992928;28;20030;-74
2021/09/13 11:33:02;;;;;;;4.05;1.10;;;;;;;22.86;53.23;100479.00;4993266;28;20030;-76
2021/09/13 11:35:33;;;;;;;2.20;2.10;;;;;;;23.03;52.56;100478.78;4971817;28;20050;-76
2021/09/13 11:38:02;;;;;;;2.20;1.67;;;;;;;23.04;52.70;100483.19;4990467;28;20125;-76
2021/09/13 11:40:28;;;;;;;1.38;1.38;;;;;;;23.00;52.03;100465.53;4973055;28;20036;-75
2021/09/13 11:43:06;;;;;;;1.05;1.05;;;;;;;23.10;51.88;100472.59;4984664;28;20022;-74
2021/09/13 11:45:32;;;;;;;1.70;1.60;;;;;;;23.10;51.95;100470.69;4992935;28;20034;-77
2021/09/13 11:48:15;;;;;;;1.98;1.63;;;;;;;23.03;51.96;100478.78;4996730;28;20498;-76
2021/09/13 11:50:50;;;;;;;1.10;1.10;;;;;;;22.98;52.57;100477.03;4983690;28;20073;-78
2021/09/13 11:53:16;;;;;;;2.15;1.95;;;;;;;22.98;52.47;100474.25;4993750;28;20490;-75
2021/09/13 11:56:00;;;;;;;1.40;1.40;;;;;;;23.01;51.70;100497.81;4966310;28;20058;-76
2021/09/13 11:58:25;;;;;;;2.22;2.13;;;;;;;22.75;51.76;100487.00;4975277;28;20531;-75
2021/09/13 12:00:54;;;;;;;1.90;1.80;;;;;;;22.62;52.21;100484.22;4957047;28;20030;-76
2021/09/13 12:03:28;;;;;;;2.42;2.33;;;;;;;22.59;52.41;100486.88;4958080;28;20112;-76
2021/09/13 12:05:54;;;;;;;1.92;1.83;;;;;;;22.58;52.51;100491.63;4970504;28;20448;-75
2021/09/13 12:08:32;;;;;;;;;;;;;;;;;;;;;
2021/09/13 12:11:27;;;;;;;1.58;1.48;;;;;;;22.47;52.83;100473.75;4983354;28;20030;-76
2021/09/13 12:14:10;;;;;;;1.20;1.20;;;;;;;22.55;53.24;100472.84;4985459;28;20555;-76
2021/09/13 12:16:45;;;;;;;;;;;;;;;;;;;;;
2021/09/13 12:19:20;;;;;;;1.40;1.30;;;;;;;22.84;52.87;100469.00;4988871;28;20031;-74
2021/09/13 12:22:01;;;;;;;1.33;1.33;;;;;;;23.08;52.63;100472.16;4985526;28;20061;-75
2021/09/13 12:24:35;;;;;;;1.10;1.10;;;;;;;23.29;52.08;100463.66;4986023;28;20027;-76
2021/09/13 12:37:54;;;;;;;1.33;1.23;;;;;;;24.05;50.19;100439.56;4975956;28;20030;-76
2021/09/13 12:59:04;;;;;;;;;;;;;;;;;;;;;
2021/09/13 13:05:27;;;;;;;2.75;2.55;;;;;;;26.47;44.88;100439.34;4727983;30;20117;-74
2021/09/13 13:08:09;;;;;;;3.05;2.75;;;;;;;26.29;44.63;100434.25;4726435;30;20055;-75
2021/09/13 13:10:44;;;;;;;3.20;3.00;;;;;;;25.93;44.42;100427.97;4766874;29;20039;-77
2021/09/13 13:13:12;;;;;;;9.13;3.08;;;;;;;25.84;44.61;100440.56;4857692;29;20127;-78
2021/09/13 13:15:59;;;;;;;4.97;4.57;;;;;;;25.54;45.04;100425.19;4861205;29;20045;-77
2021/09/13 13:18:29;;;;;;;2.70;2.60;;;;;;;25.49;45.39;100435.88;4908296;29;21542;-78
2021/09/13 13:21:26;;;;;;;2.50;2.38;;;;;;;25.29;44.85;100421.00;4900556;29;20035;-77
2021/09/13 13:23:52;;;;;;;2.00;1.90;;;;;;;24.92;45.65;100413.81;4885763;29;20693;-80
2021/09/13 13:29:18;;;;;;;4.57;2.28;;;;;;;24.46;46.80;100431.06;4883053;29;20075;-78
2021/09/13 13:31:58;;;;;;;1.90;1.80;;;;;;;24.11;46.46;100420.56;4907101;29;20551;-76
2021/09/13 13:34:29;;;;;;;1.83;1.40;;;;;;;23.76;47.57;100410.03;4895440;29;20123;-77
2021/09/13 13:36:55;;;;;;;1.73;1.60;;;;;;;23.63;47.66;100422.41;4873252;29;20076;-77
2021/09/13 13:39:32;;;;;;;1.48;1.33;;;;;;;23.45;47.99;100417.13;4880209;29;20041;-77
2021/09/13 13:41:57;;;;;;;2.20;2.10;;;;;;;23.29;48.59;100419.03;4892640;29;20487;-77
2021/09/13 13:44:34;;;;;;;2.85;2.60;;;;;;;23.11;48.78;100408.13;4873267;29;20060;-76
2021/09/13 13:47:07;;;;;;;2.35;2.25;;;;;;;22.78;49.31;100383.19;4894576;29;20050;-78
2021/09/13 13:49:41;;;;;;;2.22;2.13;;;;;;;22.81;49.91;100410.38;4895547;29;20044;-78
2021/09/13 13:52:07;;;;;;;2.60;2.50;;;;;;;22.61;49.96;100389.81;4883437;29;20381;-79
2021/09/13 13:54:48;;;;;;;3.20;3.10;;;;;;;22.68;50.25;100401.19;4896193;29;20048;-78
2021/09/13 13:57:31;;;;;;;;;;;;;;;;;;;;;
2021/09/13 14:00:25;;;;;;;2.95;2.75;;;;;;;23.03;50.14;100395.13;4896730;29;20059;-78
2021/09/13 14:02:54;;;;;;;2.35;2.25;;;;;;;23.31;50.13;100378.44;4892844;29;20386;-78
2021/09/13 14:05:29;;;;;;;;;;;;;;;;;;;;;
2021/09/13 14:08:03;;;;;;;1.50;1.42;;;;;;;24.14;48.84;100394.72;4886903;29;20100;-79
2021/09/13 14:10:29;;;;;;;3.45;3.15;;;;;;;24.34;48.82;100375.25;4885289;29;20041;-74
2021/09/13 14:13:18;;;;;;;2.40;2.30;;;;;;;24.56;47.64;100380.19;4907234;29;20059;-73
2021/09/13 14:16:41;;;;;;;3.17;3.05;;;;;;;24.35;47.01;100363.72;4895564;29;20028;-75
2021/09/13 14:19:43;;;;;;;;;;;;;;;;;;;;;
2021/09/13 14:23:08;;;;;;;;;;;;;;;;;;;;;
2021/09/13 14:28:53;;;;;;;;;;;;;;;;;;;;;
2021/09/13 14:31:47;;;;;;;;;;;;;;;;;;;;;
2021/09/13 14:34:30;;;;;;;2.25;2.15;;;;;;;23.70;49.40;100361.22;4844862;29;20456;-76
2021/09/13 14:37:29;;;;;;;;;;;;;;;;;;;;;
2021/09/13 14:44:11;;;;;;;;;;;;;;;;;;;;;
2021/09/13 14:50:24;;;;;;;;;;;;;;;;;;;;;
2021/09/13 14:53:56;;;;;;;2.63;1.85;;;;;;;27.06;41.88;100378.19;4821107;29;20045;-77
2021/09/13 14:56:21;;;;;;;4.13;1.13;;;;;;;27.06;42.20;100358.56;4816120;29;20042;-74
2021/09/13 14:58:47;;;;;;;1.40;1.30;;;;;;;27.27;41.50;100386.06;4820857;29;20120;-75
2021/09/13 15:01:12;;;;;;;1.58;1.20;;;;;;;27.16;41.47;100385.13;4827110;29;20045;-75
2021/09/13 15:03:38;;;;;;;1.38;1.27;;;;;;;27.00;41.34;100383.31;4825623;29;20034;-75
2021/09/13 15:06:03;;;;;;;1.23;1.23;;;;;;;26.93;41.55;100383.22;4869952;29;20052;-75
2021/09/13 15:08:29;;;;;;;0.60;0.60;;;;;;;26.95;41.90;100378.03;4933940;28;20034;-73